sensor_id;sensor_type;location;lat;lon;timestamp;P1;durP1;ratioP1;P2;durP2;ratioP2
40072;SDS011;25774;52.256;9.356;2022-07-23T00:01:27;8.17;;;4.27;;
40072;SDS011;25774;52.256;9.356;2022-07-23T00:03:54;13.05;;;5.05;;
40072;SDS011;25774;52.256;9.356;2022-07-23T00:06:21;6.40;;;4.47;;
40072;SDS011;25774;52.256;9.356;2022-07-23T00:08:48;13.18;;;4.80;;
40072;SDS011;25774;52.256;9.356;2022-07-23T00:11:13;12.25;;;5.25;;
40072;SDS011;25774;52.256;9.356;2022-07-23T00:13:38;8.00;;;4.70;;
40072;SDS011;25774;52.256;9.356;2022-07-23T00:16:04;7.32;;;4.47;;
40072;SDS011;25774;52.256;9.356;2022-07-23T00:18:30;6.68;;;4.70;;
40072;SDS011;25774;52.256;9.356;2022-07-23T00:20:55;11.27;;;5.13;;
40072;SDS011;25774;52.256;9.356;2022-07-23T00:23:21;9.20;;;4.78;;
40072;SDS011;25774;52.256;9.356;2022-07-23T00:25:46;10.18;;;4.97;;
40072;SDS011;25774;52.256;9.356;2022-07-23T00:28:12;9.77;;;4.83;;
40072;SDS011;25774;52.256;9.356;2022-07-23T00:30:37;7.07;;;4.57;;
40072;SDS011;25774;52.256;9.356;2022-07-23T00:33:06;9.45;;;4.38;;
40072;SDS011;25774;52.256;9.356;2022-07-23T00:35:36;10.52;;;4.90;;
40072;SDS011;25774;52.256;9.356;2022-07-23T00:38:05;7.35;;;4.40;;
40072;SDS011;25774;52.256;9.356;2022-07-23T00:40:31;7.65;;;4.65;;
40072;SDS011;25774;52.256;9.356;2022-07-23T00:42:57;9.82;;;5.28;;
40072;SDS011;25774;52.256;9.356;2022-07-23T00:45:22;9.15;;;4.22;;
40072;SDS011;25774;52.256;9.356;2022-07-23T00:47:50;7.47;;;4.23;;
40072;SDS011;25774;52.256;9.356;2022-07-23T00:50:15;6.65;;;4.53;;
40072;SDS011;25774;52.256;9.356;2022-07-23T00:52:41;11.52;;;3.90;;
40072;SDS011;25774;52.256;9.356;2022-07-23T00:55:07;7.93;;;4.40;;
40072;SDS011;25774;52.256;9.356;2022-07-23T00:57:34;8.43;;;3.70;;
40072;SDS011;25774;52.256;9.356;2022-07-23T01:02:26;13.82;;;4.88;;
40072;SDS011;25774;52.256;9.356;2022-07-23T01:04:54;11.00;;;4.45;;
40072;SDS011;25774;52.256;9.356;2022-07-23T01:07:19;8.77;;;5.15;;
40072;SDS011;25774;52.256;9.356;2022-07-23T01:09:45;7.60;;;4.55;;
40072;SDS011;25774;52.256;9.356;2022-07-23T01:12:11;7.68;;;5.55;;
40072;SDS011;25774;52.256;9.356;2022-07-23T01:14:37;8.02;;;4.78;;
40072;SDS011;25774;52.256;9.356;2022-07-23T01:17:03;12.60;;;5.38;;
40072;SDS011;25774;52.256;9.356;2022-07-23T01:19:29;8.40;;;4.60;;
40072;SDS011;25774;52.256;9.356;2022-07-23T01:21:54;7.97;;;4.53;;
40072;SDS011;25774;52.256;9.356;2022-07-23T01:24:22;7.15;;;4.32;;
40072;SDS011;25774;52.256;9.356;2022-07-23T01:26:48;12.40;;;5.33;;
40072;SDS011;25774;52.256;9.356;2022-07-23T01:29:14;9.63;;;4.18;;
40072;SDS011;25774;52.256;9.356;2022-07-23T01:31:40;13.27;;;4.22;;
40072;SDS011;25774;52.256;9.356;2022-07-23T01:34:05;9.50;;;4.68;;
40072;SDS011;25774;52.256;9.356;2022-07-23T01:36:32;7.38;;;4.25;;
40072;SDS011;25774;52.256;9.356;2022-07-23T01:38:59;10.02;;;4.95;;
40072;SDS011;25774;52.256;9.356;2022-07-23T01:43:50;8.07;;;4.13;;
40072;SDS011;25774;52.256;9.356;2022-07-23T01:46:16;7.57;;;4.35;;
40072;SDS011;25774;52.256;9.356;2022-07-23T01:48:41;7.25;;;4.38;;
40072;SDS011;25774;52.256;9.356;2022-07-23T01:51:07;6.93;;;3.93;;
40072;SDS011;25774;52.256;9.356;2022-07-23T01:53:32;6.25;;;4.22;;
40072;SDS011;25774;52.256;9.356;2022-07-23T01:55:58;7.63;;;4.65;;
40072;SDS011;25774;52.256;9.356;2022-07-23T01:58:24;10.90;;;4.60;;
40072;SDS011;25774;52.256;9.356;2022-07-23T02:00:51;9.93;;;4.43;;
40072;SDS011;25774;52.256;9.356;2022-07-23T02:03:16;9.13;;;5.07;;
40072;SDS011;25774;52.256;9.356;2022-07-23T02:05:41;8.80;;;5.23;;
40072;SDS011;25774;52.256;9.356;2022-07-23T02:08:07;8.87;;;4.60;;
40072;SDS011;25774;52.256;9.356;2022-07-23T02:10:32;7.40;;;4.30;;
40072;SDS011;25774;52.256;9.356;2022-07-23T02:12:58;6.27;;;4.33;;
40072;SDS011;25774;52.256;9.356;2022-07-23T02:15:23;9.00;;;5.60;;
40072;SDS011;25774;52.256;9.356;2022-07-23T02:17:49;12.15;;;4.43;;
40072;SDS011;25774;52.256;9.356;2022-07-23T02:20:14;9.20;;;4.82;;
40072;SDS011;25774;52.256;9.356;2022-07-23T02:22:40;9.68;;;4.68;;
40072;SDS011;25774;52.256;9.356;2022-07-23T02:25:06;7.70;;;4.70;;
40072;SDS011;25774;52.256;9.356;2022-07-23T02:27:32;7.75;;;4.72;;
40072;SDS011;25774;52.256;9.356;2022-07-23T02:29:58;11.90;;;4.70;;
40072;SDS011;25774;52.256;9.356;2022-07-23T02:32:23;10.13;;;4.63;;
40072;SDS011;25774;52.256;9.356;2022-07-23T02:34:49;9.32;;;4.03;;
40072;SDS011;25774;52.256;9.356;2022-07-23T02:37:15;9.57;;;4.90;;
40072;SDS011;25774;52.256;9.356;2022-07-23T02:39:40;12.07;;;4.07;;
40072;SDS011;25774;52.256;9.356;2022-07-23T02:42:06;9.87;;;4.67;;
40072;SDS011;25774;52.256;9.356;2022-07-23T02:44:32;9.25;;;4.50;;
40072;SDS011;25774;52.256;9.356;2022-07-23T02:46:58;12.25;;;4.88;;
40072;SDS011;25774;52.256;9.356;2022-07-23T02:49:23;14.47;;;5.47;;
40072;SDS011;25774;52.256;9.356;2022-07-23T02:51:49;9.53;;;4.57;;
40072;SDS011;25774;52.256;9.356;2022-07-23T02:54:14;12.67;;;5.17;;
40072;SDS011;25774;52.256;9.356;2022-07-23T02:56:40;11.05;;;4.82;;
40072;SDS011;25774;52.256;9.356;2022-07-23T02:59:05;11.70;;;4.72;;
40072;SDS011;25774;52.256;9.356;2022-07-23T03:01:31;11.90;;;6.07;;
40072;SDS011;25774;52.256;9.356;2022-07-23T03:03:56;7.57;;;4.13;;
40072;SDS011;25774;52.256;9.356;2022-07-23T03:06:24;9.73;;;4.97;;
40072;SDS011;25774;52.256;9.356;2022-07-23T03:08:49;9.40;;;4.70;;
40072;SDS011;25774;52.256;9.356;2022-07-23T03:11:14;17.07;;;5.10;;
40072;SDS011;25774;52.256;9.356;2022-07-23T03:13:40;10.33;;;5.00;;
40072;SDS011;25774;52.256;9.356;2022-07-23T03:16:06;7.78;;;4.78;;
40072;SDS011;25774;52.256;9.356;2022-07-23T03:18:32;13.10;;;4.97;;
40072;SDS011;25774;52.256;9.356;2022-07-23T03:20:58;8.48;;;5.07;;
40072;SDS011;25774;52.256;9.356;2022-07-23T03:23:23;12.82;;;5.25;;
40072;SDS011;25774;52.256;9.356;2022-07-23T03:25:49;9.20;;;5.75;;
40072;SDS011;25774;52.256;9.356;2022-07-23T03:28:15;10.05;;;5.45;;
40072;SDS011;25774;52.256;9.356;2022-07-23T03:30:42;13.57;;;6.20;;
40072;SDS011;25774;52.256;9.356;2022-07-23T03:33:08;9.35;;;5.85;;
40072;SDS011;25774;52.256;9.356;2022-07-23T03:35:33;14.82;;;6.93;;
40072;SDS011;25774;52.256;9.356;2022-07-23T03:37:59;11.53;;;5.90;;
40072;SDS011;25774;52.256;9.356;2022-07-23T03:40:24;10.70;;;6.53;;
40072;SDS011;25774;52.256;9.356;2022-07-23T03:42:49;12.77;;;6.13;;
40072;SDS011;25774;52.256;9.356;2022-07-23T03:45:15;12.37;;;6.57;;
40072;SDS011;25774;52.256;9.356;2022-07-23T03:47:40;10.90;;;6.63;;
40072;SDS011;25774;52.256;9.356;2022-07-23T03:50:05;13.37;;;6.57;;
40072;SDS011;25774;52.256;9.356;2022-07-23T03:52:31;11.23;;;6.38;;
40072;SDS011;25774;52.256;9.356;2022-07-23T03:54:57;10.00;;;5.67;;
40072;SDS011;25774;52.256;9.356;2022-07-23T03:57:22;10.40;;;6.43;;
40072;SDS011;25774;52.256;9.356;2022-07-23T03:59:48;8.30;;;5.57;;
40072;SDS011;25774;52.256;9.356;2022-07-23T04:02:13;11.57;;;6.07;;
40072;SDS011;25774;52.256;9.356;2022-07-23T04:04:39;8.73;;;5.90;;
40072;SDS011;25774;52.256;9.356;2022-07-23T04:07:05;16.73;;;6.17;;
40072;SDS011;25774;52.256;9.356;2022-07-23T04:09:32;10.23;;;6.00;;
40072;SDS011;25774;52.256;9.356;2022-07-23T04:11:58;11.73;;;5.75;;
40072;SDS011;25774;52.256;9.356;2022-07-23T04:14:24;10.63;;;5.67;;
40072;SDS011;25774;52.256;9.356;2022-07-23T04:16:50;11.32;;;5.93;;
40072;SDS011;25774;52.256;9.356;2022-07-23T04:19:15;9.50;;;5.40;;
40072;SDS011;25774;52.256;9.356;2022-07-23T04:21:40;11.30;;;6.13;;
40072;SDS011;25774;52.256;9.356;2022-07-23T04:24:06;13.07;;;6.23;;
40072;SDS011;25774;52.256;9.356;2022-07-23T04:26:31;12.40;;;6.03;;
40072;SDS011;25774;52.256;9.356;2022-07-23T04:28:57;13.33;;;5.60;;
40072;SDS011;25774;52.256;9.356;2022-07-23T04:31:22;13.73;;;6.87;;
40072;SDS011;25774;52.256;9.356;2022-07-23T04:33:48;9.57;;;5.93;;
40072;SDS011;25774;52.256;9.356;2022-07-23T04:36:13;12.67;;;6.10;;
40072;SDS011;25774;52.256;9.356;2022-07-23T04:38:39;11.23;;;6.30;;
40072;SDS011;25774;52.256;9.356;2022-07-23T04:41:04;10.07;;;6.40;;
40072;SDS011;25774;52.256;9.356;2022-07-23T04:43:29;13.55;;;6.47;;
40072;SDS011;25774;52.256;9.356;2022-07-23T04:45:55;13.03;;;5.67;;
40072;SDS011;25774;52.256;9.356;2022-07-23T04:48:20;10.93;;;6.07;;
40072;SDS011;25774;52.256;9.356;2022-07-23T04:50:46;12.50;;;6.80;;
40072;SDS011;25774;52.256;9.356;2022-07-23T04:53:11;10.97;;;6.60;;
40072;SDS011;25774;52.256;9.356;2022-07-23T04:55:37;12.80;;;6.90;;
40072;SDS011;25774;52.256;9.356;2022-07-23T05:00:28;11.88;;;5.60;;
40072;SDS011;25774;52.256;9.356;2022-07-23T05:02:53;15.67;;;5.80;;
40072;SDS011;25774;52.256;9.356;2022-07-23T05:05:19;17.47;;;6.37;;
40072;SDS011;25774;52.256;9.356;2022-07-23T05:07:44;18.60;;;7.60;;
40072;SDS011;25774;52.256;9.356;2022-07-23T05:10:09;10.30;;;7.17;;
40072;SDS011;25774;52.256;9.356;2022-07-23T05:12:35;16.13;;;6.60;;
40072;SDS011;25774;52.256;9.356;2022-07-23T05:15:00;14.50;;;7.37;;
40072;SDS011;25774;52.256;9.356;2022-07-23T05:17:26;14.40;;;7.20;;
40072;SDS011;25774;52.256;9.356;2022-07-23T05:19:52;11.57;;;6.75;;
40072;SDS011;25774;52.256;9.356;2022-07-23T05:22:17;15.60;;;7.23;;
40072;SDS011;25774;52.256;9.356;2022-07-23T05:24:42;12.43;;;7.10;;
40072;SDS011;25774;52.256;9.356;2022-07-23T05:27:08;17.13;;;7.50;;
40072;SDS011;25774;52.256;9.356;2022-07-23T05:29:34;14.30;;;7.30;;
40072;SDS011;25774;52.256;9.356;2022-07-23T05:31:59;11.30;;;7.00;;
40072;SDS011;25774;52.256;9.356;2022-07-23T05:34:26;12.87;;;6.63;;
40072;SDS011;25774;52.256;9.356;2022-07-23T05:39:16;12.88;;;6.13;;
40072;SDS011;25774;52.256;9.356;2022-07-23T05:41:41;8.90;;;6.53;;
40072;SDS011;25774;52.256;9.356;2022-07-23T05:44:07;15.90;;;6.93;;
40072;SDS011;25774;52.256;9.356;2022-07-23T05:46:32;11.20;;;6.70;;
40072;SDS011;25774;52.256;9.356;2022-07-23T05:48:57;11.43;;;6.37;;
40072;SDS011;25774;52.256;9.356;2022-07-23T05:51:23;14.13;;;6.57;;
40072;SDS011;25774;52.256;9.356;2022-07-23T05:53:49;9.95;;;6.57;;
40072;SDS011;25774;52.256;9.356;2022-07-23T05:56:16;16.38;;;7.57;;
40072;SDS011;25774;52.256;9.356;2022-07-23T05:58:42;12.57;;;7.03;;
40072;SDS011;25774;52.256;9.356;2022-07-23T06:01:08;17.37;;;6.77;;
40072;SDS011;25774;52.256;9.356;2022-07-23T06:03:34;11.20;;;6.45;;
40072;SDS011;25774;52.256;9.356;2022-07-23T06:05:59;11.83;;;7.13;;
40072;SDS011;25774;52.256;9.356;2022-07-23T06:08:24;15.33;;;7.07;;
40072;SDS011;25774;52.256;9.356;2022-07-23T06:10:50;11.85;;;7.80;;
40072;SDS011;25774;52.256;9.356;2022-07-23T06:13:17;12.37;;;7.27;;
40072;SDS011;25774;52.256;9.356;2022-07-23T06:15:43;16.63;;;7.20;;
40072;SDS011;25774;52.256;9.356;2022-07-23T06:18:09;15.97;;;8.20;;
40072;SDS011;25774;52.256;9.356;2022-07-23T06:20:34;13.75;;;7.13;;
40072;SDS011;25774;52.256;9.356;2022-07-23T06:22:59;13.80;;;6.90;;
40072;SDS011;25774;52.256;9.356;2022-07-23T06:25:25;11.50;;;6.77;;
40072;SDS011;25774;52.256;9.356;2022-07-23T06:27:50;15.50;;;7.95;;
40072;SDS011;25774;52.256;9.356;2022-07-23T06:30:16;12.15;;;5.70;;
40072;SDS011;25774;52.256;9.356;2022-07-23T06:32:42;10.82;;;5.18;;
40072;SDS011;25774;52.256;9.356;2022-07-23T06:35:08;8.02;;;4.47;;
40072;SDS011;25774;52.256;9.356;2022-07-23T06:37:34;12.23;;;4.67;;
40072;SDS011;25774;52.256;9.356;2022-07-23T06:39:59;10.53;;;5.20;;
40072;SDS011;25774;52.256;9.356;2022-07-23T06:42:24;12.33;;;5.10;;
40072;SDS011;25774;52.256;9.356;2022-07-23T06:44:50;7.67;;;4.20;;
40072;SDS011;25774;52.256;9.356;2022-07-23T06:47:15;6.73;;;4.40;;
40072;SDS011;25774;52.256;9.356;2022-07-23T06:49:40;8.23;;;4.43;;
40072;SDS011;25774;52.256;9.356;2022-07-23T06:52:06;8.93;;;3.97;;
40072;SDS011;25774;52.256;9.356;2022-07-23T06:54:32;6.28;;;3.60;;
40072;SDS011;25774;52.256;9.356;2022-07-23T06:56:57;7.97;;;4.32;;
40072;SDS011;25774;52.256;9.356;2022-07-23T06:59:23;8.57;;;4.20;;
40072;SDS011;25774;52.256;9.356;2022-07-23T07:01:48;8.03;;;3.13;;
40072;SDS011;25774;52.256;9.356;2022-07-23T07:04:13;5.80;;;3.20;;
40072;SDS011;25774;52.256;9.356;2022-07-23T07:06:39;14.57;;;3.23;;
40072;SDS011;25774;52.256;9.356;2022-07-23T07:09:04;8.03;;;3.43;;
40072;SDS011;25774;52.256;9.356;2022-07-23T07:11:29;8.20;;;3.10;;
40072;SDS011;25774;52.256;9.356;2022-07-23T07:13:55;10.67;;;3.30;;
40072;SDS011;25774;52.256;9.356;2022-07-23T07:16:20;9.70;;;3.80;;
40072;SDS011;25774;52.256;9.356;2022-07-23T07:18:45;8.13;;;3.37;;
40072;SDS011;25774;52.256;9.356;2022-07-23T07:21:11;8.03;;;3.60;;
40072;SDS011;25774;52.256;9.356;2022-07-23T07:23:37;7.97;;;3.40;;
40072;SDS011;25774;52.256;9.356;2022-07-23T07:26:02;5.28;;;3.28;;
40072;SDS011;25774;52.256;9.356;2022-07-23T07:28:28;5.97;;;3.20;;
40072;SDS011;25774;52.256;9.356;2022-07-23T07:30:53;9.68;;;3.72;;
40072;SDS011;25774;52.256;9.356;2022-07-23T07:33:18;5.20;;;3.27;;
40072;SDS011;25774;52.256;9.356;2022-07-23T07:35:44;6.97;;;3.35;;
40072;SDS011;25774;52.256;9.356;2022-07-23T07:38:09;5.18;;;2.92;;
40072;SDS011;25774;52.256;9.356;2022-07-23T07:40:35;8.43;;;3.92;;
40072;SDS011;25774;52.256;9.356;2022-07-23T07:43:00;7.22;;;3.47;;
40072;SDS011;25774;52.256;9.356;2022-07-23T07:45:28;7.13;;;3.13;;
40072;SDS011;25774;52.256;9.356;2022-07-23T07:47:54;11.43;;;3.95;;
40072;SDS011;25774;52.256;9.356;2022-07-23T07:50:19;6.10;;;3.30;;
40072;SDS011;25774;52.256;9.356;2022-07-23T07:52:47;6.35;;;2.90;;
40072;SDS011;25774;52.256;9.356;2022-07-23T07:55:12;5.25;;;3.13;;
40072;SDS011;25774;52.256;9.356;2022-07-23T07:57:38;6.65;;;2.90;;
40072;SDS011;25774;52.256;9.356;2022-07-23T08:00:04;9.15;;;3.15;;
40072;SDS011;25774;52.256;9.356;2022-07-23T08:02:39;6.65;;;3.47;;
40072;SDS011;25774;52.256;9.356;2022-07-23T08:05:06;4.63;;;2.72;;
40072;SDS011;25774;52.256;9.356;2022-07-23T08:07:31;6.13;;;2.65;;
40072;SDS011;25774;52.256;9.356;2022-07-23T08:09:57;5.13;;;2.35;;
40072;SDS011;25774;52.256;9.356;2022-07-23T08:12:22;6.22;;;2.42;;
40072;SDS011;25774;52.256;9.356;2022-07-23T08:14:47;5.72;;;3.08;;
40072;SDS011;25774;52.256;9.356;2022-07-23T08:17:14;7.30;;;2.65;;
40072;SDS011;25774;52.256;9.356;2022-07-23T08:19:39;8.75;;;2.75;;
40072;SDS011;25774;52.256;9.356;2022-07-23T08:22:05;4.88;;;2.25;;
40072;SDS011;25774;52.256;9.356;2022-07-23T08:24:30;8.17;;;3.37;;
40072;SDS011;25774;52.256;9.356;2022-07-23T08:26:56;7.70;;;2.53;;
40072;SDS011;25774;52.256;9.356;2022-07-23T08:29:22;8.32;;;2.97;;
40072;SDS011;25774;52.256;9.356;2022-07-23T08:31:47;6.50;;;3.43;;
40072;SDS011;25774;52.256;9.356;2022-07-23T08:34:12;4.97;;;2.37;;
40072;SDS011;25774;52.256;9.356;2022-07-23T08:36:38;5.60;;;2.33;;
40072;SDS011;25774;52.256;9.356;2022-07-23T08:39:03;5.10;;;2.22;;
40072;SDS011;25774;52.256;9.356;2022-07-23T08:41:28;6.20;;;2.60;;
40072;SDS011;25774;52.256;9.356;2022-07-23T08:43:54;6.30;;;2.40;;
40072;SDS011;25774;52.256;9.356;2022-07-23T08:48:47;5.85;;;2.63;;
40072;SDS011;25774;52.256;9.356;2022-07-23T08:51:13;7.93;;;2.30;;
40072;SDS011;25774;52.256;9.356;2022-07-23T08:53:39;5.20;;;2.17;;
40072;SDS011;25774;52.256;9.356;2022-07-23T08:56:07;5.13;;;1.83;;
40072;SDS011;25774;52.256;9.356;2022-07-23T08:58:34;5.57;;;2.40;;
40072;SDS011;25774;52.256;9.356;2022-07-23T09:01:00;6.55;;;1.63;;
40072;SDS011;25774;52.256;9.356;2022-07-23T09:03:33;3.88;;;1.70;;
40072;SDS011;25774;52.256;9.356;2022-07-23T09:06:01;4.30;;;1.50;;
40072;SDS011;25774;52.256;9.356;2022-07-23T09:08:40;4.57;;;1.50;;
40072;SDS011;25774;52.256;9.356;2022-07-23T09:11:08;3.92;;;1.20;;
40072;SDS011;25774;52.256;9.356;2022-07-23T09:16:10;5.97;;;1.85;;
40072;SDS011;25774;52.256;9.356;2022-07-23T09:18:39;3.80;;;1.73;;
40072;SDS011;25774;52.256;9.356;2022-07-23T09:21:17;3.35;;;1.23;;
40072;SDS011;25774;52.256;9.356;2022-07-23T09:23:58;3.55;;;1.38;;
40072;SDS011;25774;52.256;9.356;2022-07-23T09:26:41;2.70;;;0.88;;
40072;SDS011;25774;52.256;9.356;2022-07-23T09:29:13;5.35;;;1.45;;
40072;SDS011;25774;52.256;9.356;2022-07-23T09:31:53;6.10;;;1.52;;
40072;SDS011;25774;52.256;9.356;2022-07-23T09:34:27;3.22;;;1.00;;
40072;SDS011;25774;52.256;9.356;2022-07-23T09:36:58;1.73;;;0.93;;
40072;SDS011;25774;52.256;9.356;2022-07-23T09:39:37;2.78;;;0.85;;
40072;SDS011;25774;52.256;9.356;2022-07-23T09:44:42;6.45;;;1.02;;
40072;SDS011;25774;52.256;9.356;2022-07-23T09:47:09;4.38;;;0.88;;
40072;SDS011;25774;52.256;9.356;2022-07-23T09:52:00;3.80;;;1.03;;
40072;SDS011;25774;52.256;9.356;2022-07-23T09:54:28;4.05;;;0.80;;
40072;SDS011;25774;52.256;9.356;2022-07-23T09:57:00;1.98;;;0.80;;
40072;SDS011;25774;52.256;9.356;2022-07-23T09:59:37;2.80;;;1.02;;
40072;SDS011;25774;52.256;9.356;2022-07-23T10:02:04;2.75;;;1.02;;
40072;SDS011;25774;52.256;9.356;2022-07-23T10:04:31;3.88;;;1.00;;
40072;SDS011;25774;52.256;9.356;2022-07-23T10:09:25;3.15;;;1.27;;
40072;SDS011;25774;52.256;9.356;2022-07-23T10:11:55;4.28;;;1.25;;
40072;SDS011;25774;52.256;9.356;2022-07-23T10:14:26;4.80;;;1.25;;
40072;SDS011;25774;52.256;9.356;2022-07-23T10:16:52;6.35;;;1.42;;
40072;SDS011;25774;52.256;9.356;2022-07-23T10:19:19;4.03;;;1.02;;
40072;SDS011;25774;52.256;9.356;2022-07-23T10:21:46;3.28;;;1.00;;
40072;SDS011;25774;52.256;9.356;2022-07-23T10:27:13;4.18;;;1.02;;
40072;SDS011;25774;52.256;9.356;2022-07-23T10:29:55;6.05;;;1.08;;
40072;SDS011;25774;52.256;9.356;2022-07-23T10:32:32;1.48;;;0.73;;
40072;SDS011;25774;52.256;9.356;2022-07-23T10:35:24;3.33;;;0.82;;
40072;SDS011;25774;52.256;9.356;2022-07-23T10:38:02;3.55;;;0.95;;
40072;SDS011;25774;52.256;9.356;2022-07-23T10:40:35;3.97;;;1.27;;
40072;SDS011;25774;52.256;9.356;2022-07-23T10:45:29;3.10;;;0.77;;
40072;SDS011;25774;52.256;9.356;2022-07-23T10:48:19;4.43;;;0.90;;
40072;SDS011;25774;52.256;9.356;2022-07-23T10:50:44;4.82;;;1.15;;
40072;SDS011;25774;52.256;9.356;2022-07-23T10:53:52;2.97;;;1.00;;
40072;SDS011;25774;52.256;9.356;2022-07-23T10:56:15;5.13;;;1.10;;
40072;SDS011;25774;52.256;9.356;2022-07-23T11:04:04;5.97;;;1.02;;
40072;SDS011;25774;52.256;9.356;2022-07-23T11:17:26;2.53;;;0.60;;
40072;SDS011;25774;52.256;9.356;2022-07-23T11:25:09;5.35;;;1.00;;
40072;SDS011;25774;52.256;9.356;2022-07-23T11:27:39;4.72;;;0.98;;
40072;SDS011;25774;52.256;9.356;2022-07-23T11:30:09;3.38;;;1.25;;
40072;SDS011;25774;52.256;9.356;2022-07-23T11:32:40;2.00;;;0.70;;
40072;SDS011;25774;52.256;9.356;2022-07-23T11:35:25;3.58;;;0.80;;
40072;SDS011;25774;52.256;9.356;2022-07-23T11:37:53;1.65;;;0.50;;
40072;SDS011;25774;52.256;9.356;2022-07-23T11:40:27;2.88;;;0.50;;
40072;SDS011;25774;52.256;9.356;2022-07-23T11:45:22;2.13;;;0.57;;
40072;SDS011;25774;52.256;9.356;2022-07-23T11:47:48;2.05;;;0.47;;
40072;SDS011;25774;52.256;9.356;2022-07-23T11:52:41;4.13;;;0.60;;
40072;SDS011;25774;52.256;9.356;2022-07-23T11:57:36;2.78;;;0.57;;
40072;SDS011;25774;52.256;9.356;2022-07-23T12:02:40;1.33;;;0.57;;
40072;SDS011;25774;52.256;9.356;2022-07-23T12:05:13;0.75;;;0.40;;
40072;SDS011;25774;52.256;9.356;2022-07-23T12:07:45;8.00;;;0.68;;
40072;SDS011;25774;52.256;9.356;2022-07-23T12:15:28;2.25;;;0.52;;
40072;SDS011;25774;52.256;9.356;2022-07-23T12:17:56;3.08;;;0.80;;
40072;SDS011;25774;52.256;9.356;2022-07-23T12:20:24;1.30;;;0.50;;
40072;SDS011;25774;52.256;9.356;2022-07-23T12:22:52;0.90;;;0.40;;
40072;SDS011;25774;52.256;9.356;2022-07-23T12:25:25;1.75;;;0.55;;
40072;SDS011;25774;52.256;9.356;2022-07-23T12:30:41;1.48;;;0.52;;
40072;SDS011;25774;52.256;9.356;2022-07-23T12:33:09;2.03;;;0.40;;
40072;SDS011;25774;52.256;9.356;2022-07-23T12:35:40;2.22;;;0.60;;
40072;SDS011;25774;52.256;9.356;2022-07-23T12:38:09;1.35;;;0.45;;
40072;SDS011;25774;52.256;9.356;2022-07-23T12:43:21;13.45;;;0.90;;
40072;SDS011;25774;52.256;9.356;2022-07-23T12:45:52;2.28;;;0.73;;
40072;SDS011;25774;52.256;9.356;2022-07-23T12:48:30;5.45;;;0.50;;
40072;SDS011;25774;52.256;9.356;2022-07-23T12:51:06;3.65;;;0.60;;
40072;SDS011;25774;52.256;9.356;2022-07-23T12:53:44;4.30;;;0.77;;
40072;SDS011;25774;52.256;9.356;2022-07-23T12:56:14;1.80;;;0.60;;
40072;SDS011;25774;52.256;9.356;2022-07-23T12:58:42;7.75;;;0.60;;
40072;SDS011;25774;52.256;9.356;2022-07-23T13:04:01;3.42;;;0.60;;
40072;SDS011;25774;52.256;9.356;2022-07-23T13:06:32;1.38;;;0.45;;
40072;SDS011;25774;52.256;9.356;2022-07-23T13:09:06;1.67;;;0.65;;
40072;SDS011;25774;52.256;9.356;2022-07-23T13:11:32;2.47;;;0.60;;
40072;SDS011;25774;52.256;9.356;2022-07-23T13:13:58;1.65;;;0.50;;
40072;SDS011;25774;52.256;9.356;2022-07-23T13:16:26;2.78;;;0.55;;
40072;SDS011;25774;52.256;9.356;2022-07-23T13:18:55;1.92;;;0.55;;
40072;SDS011;25774;52.256;9.356;2022-07-23T13:21:24;3.45;;;0.50;;
40072;SDS011;25774;52.256;9.356;2022-07-23T13:23:50;1.13;;;0.88;;
40072;SDS011;25774;52.256;9.356;2022-07-23T13:26:15;2.40;;;0.45;;
40072;SDS011;25774;52.256;9.356;2022-07-23T13:31:06;2.43;;;0.50;;
40072;SDS011;25774;52.256;9.356;2022-07-23T13:33:34;2.05;;;0.60;;
40072;SDS011;25774;52.256;9.356;2022-07-23T13:36:01;1.98;;;0.60;;
40072;SDS011;25774;52.256;9.356;2022-07-23T13:38:28;5.85;;;0.55;;
40072;SDS011;25774;52.256;9.356;2022-07-23T13:40:55;3.55;;;0.50;;
40072;SDS011;25774;52.256;9.356;2022-07-23T13:43:23;3.10;;;0.45;;
40072;SDS011;25774;52.256;9.356;2022-07-23T13:45:50;1.52;;;0.60;;
40072;SDS011;25774;52.256;9.356;2022-07-23T13:48:17;1.17;;;0.45;;
40072;SDS011;25774;52.256;9.356;2022-07-23T13:50:43;2.58;;;0.60;;
40072;SDS011;25774;52.256;9.356;2022-07-23T13:53:11;3.70;;;0.50;;
40072;SDS011;25774;52.256;9.356;2022-07-23T13:55:39;3.35;;;0.63;;
40072;SDS011;25774;52.256;9.356;2022-07-23T13:58:06;2.05;;;0.50;;
40072;SDS011;25774;52.256;9.356;2022-07-23T14:00:33;1.42;;;0.35;;
40072;SDS011;25774;52.256;9.356;2022-07-23T14:02:59;1.42;;;0.40;;
40072;SDS011;25774;52.256;9.356;2022-07-23T14:05:25;0.82;;;0.43;;
40072;SDS011;25774;52.256;9.356;2022-07-23T14:07:51;3.20;;;0.40;;
40072;SDS011;25774;52.256;9.356;2022-07-23T14:10:18;1.45;;;0.40;;
40072;SDS011;25774;52.256;9.356;2022-07-23T14:12:46;1.88;;;0.50;;
40072;SDS011;25774;52.256;9.356;2022-07-23T14:15:13;0.82;;;0.40;;
40072;SDS011;25774;52.256;9.356;2022-07-23T14:17:39;1.02;;;0.40;;
40072;SDS011;25774;52.256;9.356;2022-07-23T14:20:06;2.28;;;0.43;;
40072;SDS011;25774;52.256;9.356;2022-07-23T14:22:33;11.23;;;1.02;;
40072;SDS011;25774;52.256;9.356;2022-07-23T14:24:58;2.83;;;0.30;;
40072;SDS011;25774;52.256;9.356;2022-07-23T14:27:25;1.75;;;0.38;;
40072;SDS011;25774;52.256;9.356;2022-07-23T14:29:52;0.57;;;0.40;;
40072;SDS011;25774;52.256;9.356;2022-07-23T14:32:17;1.25;;;0.55;;
40072;SDS011;25774;52.256;9.356;2022-07-23T14:37:09;0.70;;;0.38;;
40072;SDS011;25774;52.256;9.356;2022-07-23T14:39:37;1.70;;;0.45;;
40072;SDS011;25774;52.256;9.356;2022-07-23T14:42:04;1.15;;;0.30;;
40072;SDS011;25774;52.256;9.356;2022-07-23T14:44:30;0.65;;;0.22;;
40072;SDS011;25774;52.256;9.356;2022-07-23T14:46:56;1.60;;;0.50;;
40072;SDS011;25774;52.256;9.356;2022-07-23T14:49:21;1.20;;;0.45;;
40072;SDS011;25774;52.256;9.356;2022-07-23T14:54:12;2.88;;;0.70;;
40072;SDS011;25774;52.256;9.356;2022-07-23T14:56:39;1.17;;;0.30;;
40072;SDS011;25774;52.256;9.356;2022-07-23T14:59:05;2.50;;;0.40;;
40072;SDS011;25774;52.256;9.356;2022-07-23T15:01:31;0.60;;;0.32;;
40072;SDS011;25774;52.256;9.356;2022-07-23T15:03:57;2.60;;;0.52;;
40072;SDS011;25774;52.256;9.356;2022-07-23T15:06:23;1.77;;;0.40;;
40072;SDS011;25774;52.256;9.356;2022-07-23T15:08:48;1.38;;;0.47;;
40072;SDS011;25774;52.256;9.356;2022-07-23T15:11:14;1.48;;;0.40;;
40072;SDS011;25774;52.256;9.356;2022-07-23T15:16:06;2.10;;;0.40;;
40072;SDS011;25774;52.256;9.356;2022-07-23T15:18:32;0.63;;;0.20;;
40072;SDS011;25774;52.256;9.356;2022-07-23T15:20:57;1.80;;;0.60;;
40072;SDS011;25774;52.256;9.356;2022-07-23T15:23:23;2.38;;;0.40;;
40072;SDS011;25774;52.256;9.356;2022-07-23T15:25:48;2.17;;;0.40;;
40072;SDS011;25774;52.256;9.356;2022-07-23T15:28:14;0.90;;;0.38;;
40072;SDS011;25774;52.256;9.356;2022-07-23T15:30:39;0.65;;;0.30;;
40072;SDS011;25774;52.256;9.356;2022-07-23T15:33:05;0.95;;;0.40;;
40072;SDS011;25774;52.256;9.356;2022-07-23T15:35:30;1.02;;;0.40;;
40072;SDS011;25774;52.256;9.356;2022-07-23T15:37:58;3.10;;;0.40;;
40072;SDS011;25774;52.256;9.356;2022-07-23T15:40:24;1.85;;;0.47;;
40072;SDS011;25774;52.256;9.356;2022-07-23T15:42:51;1.33;;;0.40;;
40072;SDS011;25774;52.256;9.356;2022-07-23T15:45:17;2.03;;;0.50;;
40072;SDS011;25774;52.256;9.356;2022-07-23T15:47:42;1.48;;;0.40;;
40072;SDS011;25774;52.256;9.356;2022-07-23T15:52:34;2.13;;;0.32;;
40072;SDS011;25774;52.256;9.356;2022-07-23T15:55:00;0.43;;;0.30;;
40072;SDS011;25774;52.256;9.356;2022-07-23T15:57:26;1.67;;;0.52;;
40072;SDS011;25774;52.256;9.356;2022-07-23T15:59:51;0.60;;;0.40;;
40072;SDS011;25774;52.256;9.356;2022-07-23T16:02:17;1.13;;;0.22;;
40072;SDS011;25774;52.256;9.356;2022-07-23T16:04:42;1.20;;;0.50;;
40072;SDS011;25774;52.256;9.356;2022-07-23T16:07:08;1.27;;;0.50;;